createdAt,value
2023-03-29T00:01:42.320Z,7.73
2023-03-29T00:04:10.179Z,8.40
2023-03-29T00:06:37.802Z,7.40
2023-03-29T00:09:05.833Z,10.23
2023-03-29T00:11:32.705Z,9.18
2023-03-29T00:13:59.246Z,5.23
2023-03-29T00:16:25.806Z,8.73
2023-03-29T00:18:52.313Z,9.32
2023-03-29T00:21:18.846Z,9.18
2023-03-29T00:23:45.698Z,5.30
2023-03-29T00:26:12.435Z,8.13
2023-03-29T00:28:39.013Z,9.55
2023-03-29T00:31:11.495Z,8.95
2023-03-29T00:33:38.665Z,7.10
2023-03-29T00:36:06.411Z,9.73
2023-03-29T00:38:33.352Z,9.23
2023-03-29T00:41:00.314Z,7.10
2023-03-29T00:43:27.087Z,10.85
2023-03-29T00:45:53.787Z,8.05
2023-03-29T00:48:23.881Z,9.55
2023-03-29T00:51:01.774Z,6.87
2023-03-29T00:53:28.625Z,8.73
2023-03-29T00:56:12.126Z,8.02
2023-03-29T00:58:57.255Z,9.02
2023-03-29T01:01:36.009Z,10.52
2023-03-29T01:04:06.095Z,8.27
2023-03-29T01:06:35.008Z,9.82
2023-03-29T01:09:07.565Z,10.40
2023-03-29T01:11:39.887Z,8.82
2023-03-29T01:14:33.807Z,10.55
2023-03-29T01:17:00.295Z,9.73
2023-03-29T01:19:30.326Z,7.60
2023-03-29T01:22:05.729Z,10.00
2023-03-29T01:24:38.116Z,7.57
2023-03-29T01:27:43.580Z,9.85
2023-03-29T01:30:14.945Z,12.77
2023-03-29T01:32:50.495Z,6.90
2023-03-29T01:35:23.848Z,7.05
2023-03-29T01:37:58.563Z,7.22
2023-03-29T01:40:28.112Z,7.72
2023-03-29T01:43:50.623Z,7.87
2023-03-29T01:46:34.235Z,9.80
2023-03-29T01:49:13.465Z,7.97
2023-03-29T01:51:49.417Z,6.60
2023-03-29T01:54:20.653Z,7.78
2023-03-29T01:56:49.024Z,8.60
2023-03-29T01:59:22.746Z,7.32
2023-03-29T02:01:51.690Z,8.60
2023-03-29T02:04:21.788Z,8.13
2023-03-29T02:06:50.327Z,8.10
2023-03-29T02:09:17.310Z,8.93
2023-03-29T02:11:44.746Z,9.38
2023-03-29T02:14:11.421Z,5.90
2023-03-29T02:16:39.023Z,7.32
2023-03-29T02:19:07.796Z,6.43
2023-03-29T02:21:42.904Z,7.33
2023-03-29T02:24:11.269Z,9.27
2023-03-29T02:26:37.778Z,8.82
2023-03-29T02:29:04.397Z,5.70
2023-03-29T02:31:37.315Z,5.95
2023-03-29T02:34:16.360Z,7.83
2023-03-29T02:36:49.819Z,6.47
2023-03-29T02:39:18.061Z,7.63
2023-03-29T02:41:47.394Z,9.13
2023-03-29T02:44:17.878Z,5.82
2023-03-29T02:46:45.439Z,6.50
2023-03-29T02:49:12.091Z,7.07
2023-03-29T02:51:39.004Z,4.95
2023-03-29T02:54:05.531Z,5.40
2023-03-29T02:56:44.755Z,8.77
2023-03-29T02:59:15.143Z,5.80
2023-03-29T03:01:42.805Z,8.05
2023-03-29T03:04:10.239Z,6.38
2023-03-29T03:06:37.768Z,7.05
2023-03-29T03:09:05.870Z,9.38
2023-03-29T03:11:33.725Z,6.10
2023-03-29T03:14:00.358Z,4.38
2023-03-29T03:16:27.183Z,6.20
2023-03-29T03:18:54.840Z,6.30
2023-03-29T03:21:22.284Z,10.38
2023-03-29T03:23:49.288Z,7.57
2023-03-29T03:26:17.818Z,8.13
2023-03-29T03:28:45.824Z,5.65
2023-03-29T03:31:15.742Z,4.07
2023-03-29T03:33:42.463Z,8.18
2023-03-29T03:36:10.298Z,4.87
2023-03-29T03:38:37.766Z,8.13
2023-03-29T03:41:05.622Z,5.95
2023-03-29T03:43:32.869Z,4.53
2023-03-29T03:45:59.373Z,6.47
2023-03-29T03:48:26.074Z,5.37
2023-03-29T03:50:54.959Z,5.97
2023-03-29T03:53:22.282Z,7.55
2023-03-29T03:55:49.509Z,8.65
2023-03-29T03:58:17.190Z,6.25
2023-03-29T04:00:45.122Z,7.17
2023-03-29T04:03:11.781Z,8.38
2023-03-29T04:05:41.996Z,7.97
2023-03-29T04:08:08.552Z,10.95
2023-03-29T04:10:35.361Z,5.93
2023-03-29T04:13:02.878Z,7.97
2023-03-29T04:15:29.569Z,5.65
2023-03-29T04:17:56.810Z,7.28
2023-03-29T04:20:24.270Z,6.72
2023-03-29T04:22:51.429Z,7.35
2023-03-29T04:25:18.796Z,12.73
2023-03-29T04:27:46.203Z,6.25
2023-03-29T04:30:13.161Z,6.88
2023-03-29T04:32:39.721Z,4.40
2023-03-29T04:35:06.796Z,10.23
2023-03-29T04:37:33.552Z,6.90
2023-03-29T04:40:04.818Z,6.68
2023-03-29T04:42:31.400Z,9.45
2023-03-29T04:44:58.445Z,9.98
2023-03-29T04:47:25.047Z,7.88
2023-03-29T04:49:51.756Z,10.10
2023-03-29T04:52:18.242Z,7.10
2023-03-29T04:54:44.790Z,9.00
2023-03-29T04:57:11.498Z,11.63
2023-03-29T04:59:38.049Z,5.47
2023-03-29T05:02:04.971Z,8.67
2023-03-29T05:04:33.257Z,12.48
2023-03-29T05:07:01.548Z,9.25
2023-03-29T05:09:28.328Z,8.77
2023-03-29T05:11:54.818Z,9.15
2023-03-29T05:14:21.584Z,9.63
2023-03-29T05:16:48.121Z,10.90
2023-03-29T05:19:14.648Z,7.93
2023-03-29T05:21:42.112Z,7.32
2023-03-29T05:24:09.893Z,9.10
2023-03-29T05:26:36.559Z,10.13
2023-03-29T05:29:04.686Z,12.98
2023-03-29T05:31:32.525Z,9.02
2023-03-29T05:33:59.091Z,8.18
2023-03-29T05:36:25.539Z,10.63
2023-03-29T05:38:52.168Z,12.43
2023-03-29T05:41:18.692Z,9.13
2023-03-29T05:43:45.581Z,7.43
2023-03-29T05:46:12.602Z,7.50
2023-03-29T05:48:39.447Z,8.55
2023-03-29T05:51:06.244Z,6.30
2023-03-29T05:53:33.200Z,6.35
2023-03-29T05:55:59.726Z,6.88
2023-03-29T05:58:26.594Z,11.45
2023-03-29T06:00:53.309Z,9.15
2023-03-29T06:03:25.217Z,8.37
2023-03-29T06:06:00.377Z,8.25
2023-03-29T06:08:27.898Z,7.07
2023-03-29T06:11:05.799Z,4.45
2023-03-29T06:13:37.165Z,5.95
2023-03-29T06:16:04.330Z,7.20
2023-03-29T06:18:31.089Z,6.22
2023-03-29T06:20:57.750Z,8.48
2023-03-29T06:23:24.856Z,7.65
2023-03-29T06:25:51.494Z,7.38
2023-03-29T06:28:19.145Z,8.23
2023-03-29T06:30:46.055Z,7.18
2023-03-29T06:33:14.592Z,9.05
2023-03-29T06:35:46.258Z,10.02
2023-03-29T06:38:13.620Z,8.88
2023-03-29T06:40:40.199Z,8.53
2023-03-29T06:43:06.942Z,8.63
2023-03-29T06:45:35.438Z,7.22
2023-03-29T06:48:03.250Z,10.25
2023-03-29T06:50:30.752Z,9.07
2023-03-29T06:52:57.364Z,7.67
2023-03-29T06:55:24.838Z,6.50
2023-03-29T06:57:52.683Z,6.63
2023-03-29T07:00:23.263Z,4.55
2023-03-29T07:02:49.802Z,7.50
2023-03-29T07:05:16.427Z,2.97
2023-03-29T07:07:55.257Z,5.07
2023-03-29T07:10:26.486Z,4.10
2023-03-29T07:12:53.017Z,9.13
2023-03-29T07:15:21.376Z,4.65
2023-03-29T07:17:49.058Z,4.43
2023-03-29T07:20:16.676Z,4.93
2023-03-29T07:22:45.705Z,4.20
2023-03-29T07:25:14.810Z,4.47
2023-03-29T07:27:42.688Z,5.72
2023-03-29T07:30:11.224Z,8.70
2023-03-29T07:32:39.756Z,3.10
2023-03-29T07:35:07.633Z,3.08
2023-03-29T07:37:36.779Z,4.88
2023-03-29T07:40:24.611Z,3.17
2023-03-29T07:42:53.962Z,4.33
2023-03-29T07:45:26.612Z,4.82
2023-03-29T07:47:56.531Z,4.07
2023-03-29T07:50:23.172Z,3.08
2023-03-29T07:52:50.100Z,2.30
2023-03-29T07:55:17.096Z,2.43
2023-03-29T07:57:44.220Z,5.43
2023-03-29T08:00:16.356Z,6.07
2023-03-29T08:02:44.689Z,5.53
2023-03-29T08:05:12.927Z,4.25
2023-03-29T08:07:40.927Z,4.00
2023-03-29T08:10:09.328Z,4.65
2023-03-29T08:12:37.156Z,2.92
2023-03-29T08:15:05.388Z,3.63
2023-03-29T08:17:32.956Z,1.42
2023-03-29T08:19:59.540Z,2.03
2023-03-29T08:22:26.054Z,2.10
2023-03-29T08:24:52.970Z,2.42
2023-03-29T08:27:19.562Z,5.65
2023-03-29T08:29:46.605Z,3.17
2023-03-29T08:32:13.129Z,2.07
2023-03-29T08:34:39.652Z,2.05
2023-03-29T08:37:06.226Z,4.07
2023-03-29T08:39:34.889Z,6.05
2023-03-29T08:42:28.984Z,3.42
2023-03-29T08:45:16.742Z,4.30
2023-03-29T08:47:52.185Z,4.13
2023-03-29T08:50:20.462Z,6.25
2023-03-29T08:52:53.620Z,3.58
2023-03-29T08:55:28.974Z,3.85
2023-03-29T08:57:55.925Z,2.90
2023-03-29T09:00:28.484Z,3.65
2023-03-29T09:02:57.433Z,3.28
2023-03-29T09:05:28.048Z,2.63
2023-03-29T09:07:54.554Z,3.65
2023-03-29T09:10:30.984Z,5.93
2023-03-29T09:13:28.613Z,3.03
2023-03-29T09:16:01.238Z,4.63
2023-03-29T09:18:38.917Z,2.42
2023-03-29T09:21:34.741Z,4.65
2023-03-29T09:24:10.114Z,3.87
2023-03-29T09:26:57.189Z,2.97
2023-03-29T09:29:33.558Z,3.38
2023-03-29T09:32:03.560Z,1.40
2023-03-29T09:34:41.971Z,3.60
2023-03-29T09:37:21.355Z,2.70
2023-03-29T09:39:49.220Z,5.00
2023-03-29T09:42:16.536Z,1.05
2023-03-29T09:44:50.917Z,2.65
2023-03-29T09:47:20.370Z,3.33
2023-03-29T09:49:49.940Z,4.00
2023-03-29T09:52:17.115Z,3.15
2023-03-29T09:54:43.973Z,3.30
2023-03-29T09:57:12.583Z,6.22
2023-03-29T09:59:39.717Z,2.70
2023-03-29T10:02:13.695Z,3.70
2023-03-29T10:04:42.513Z,7.35
2023-03-29T10:07:20.725Z,4.05
2023-03-29T10:09:50.565Z,4.25
2023-03-29T10:12:17.492Z,3.15
2023-03-29T10:14:53.506Z,4.67
2023-03-29T10:17:23.090Z,4.20
2023-03-29T10:19:58.148Z,4.28
2023-03-29T10:22:27.219Z,2.60
2023-03-29T10:24:55.495Z,5.82
2023-03-29T10:27:24.939Z,2.30
2023-03-29T10:29:52.028Z,4.35
2023-03-29T10:32:35.607Z,2.45
2023-03-29T10:35:22.701Z,2.03
2023-03-29T10:37:51.990Z,4.53
2023-03-29T10:40:24.457Z,4.63
2023-03-29T10:42:51.882Z,4.90
2023-03-29T10:45:22.898Z,3.30
2023-03-29T10:47:49.418Z,4.90
2023-03-29T10:50:16.739Z,4.72
2023-03-29T10:52:43.320Z,6.90
2023-03-29T10:55:13.405Z,4.35
2023-03-29T10:58:11.309Z,4.05
2023-03-29T11:00:45.142Z,2.00
2023-03-29T11:03:19.513Z,2.83
2023-03-29T11:05:51.919Z,2.83
2023-03-29T11:08:36.594Z,2.80
2023-03-29T11:11:22.307Z,2.63
2023-03-29T11:14:01.489Z,2.47
2023-03-29T11:16:38.363Z,3.17
2023-03-29T11:19:35.504Z,1.97
2023-03-29T11:22:24.449Z,2.72
2023-03-29T11:25:33.633Z,2.05
2023-03-29T11:28:14.459Z,4.30
2023-03-29T11:30:40.882Z,1.83
2023-03-29T11:33:11.816Z,3.03
2023-03-29T11:35:54.225Z,5.22
2023-03-29T11:38:39.925Z,3.63
2023-03-29T11:44:30.237Z,4.32
2023-03-29T11:47:07.278Z,5.43
2023-03-29T11:50:06.465Z,2.58
2023-03-29T11:52:47.228Z,3.67
2023-03-29T11:55:16.514Z,3.40
2023-03-29T11:57:54.043Z,5.97
2023-03-29T12:00:23.082Z,3.80
2023-03-29T12:03:18.902Z,1.75
2023-03-29T12:05:52.344Z,4.97
2023-03-29T12:08:21.569Z,2.80
2023-03-29T12:11:14.051Z,5.45
2023-03-29T12:13:54.909Z,4.43
2023-03-29T12:16:27.948Z,3.88
2023-03-29T12:18:57.220Z,4.35
2023-03-29T12:21:26.744Z,4.80
2023-03-29T12:23:53.316Z,3.42
2023-03-29T12:26:52.624Z,5.63
2023-03-29T12:29:37.411Z,5.88
2023-03-29T12:32:21.554Z,3.65
2023-03-29T12:35:12.954Z,5.40
2023-03-29T12:38:09.810Z,4.68
2023-03-29T12:40:42.163Z,6.00
2023-03-29T12:43:17.592Z,3.13
2023-03-29T12:45:51.210Z,4.88
2023-03-29T12:48:27.644Z,5.95
2023-03-29T12:51:15.957Z,5.75
2023-03-29T12:53:49.601Z,3.80
2023-03-29T12:56:18.706Z,3.38
2023-03-29T12:59:17.708Z,6.20
2023-03-29T13:01:58.144Z,5.03
2023-03-29T13:04:37.409Z,6.38
2023-03-29T13:07:05.799Z,4.80
2023-03-29T13:09:52.157Z,4.10
2023-03-29T13:12:27.041Z,5.15
2023-03-29T13:14:59.769Z,5.55
2023-03-29T13:17:27.641Z,8.38
2023-03-29T13:20:20.009Z,4.53
2023-03-29T13:23:09.510Z,7.20
2023-03-29T13:25:57.823Z,8.73
2023-03-29T13:28:39.141Z,6.03
2023-03-29T13:31:33.559Z,6.20
2023-03-29T13:34:35.487Z,3.63
2023-03-29T13:37:22.979Z,3.70
2023-03-29T13:39:52.884Z,7.07
2023-03-29T13:42:41.802Z,6.72
2023-03-29T13:45:29.518Z,3.67
2023-03-29T13:48:05.597Z,6.80
2023-03-29T13:50:38.992Z,4.32
2023-03-29T13:53:15.094Z,7.28
2023-03-29T13:55:46.492Z,6.03
2023-03-29T13:58:43.312Z,7.40
2023-03-29T14:01:36.453Z,5.37
2023-03-29T14:04:05.058Z,8.20
2023-03-29T14:06:33.679Z,10.25
2023-03-29T14:09:06.309Z,8.15
2023-03-29T14:11:33.524Z,5.57
2023-03-29T14:14:05.187Z,7.97
2023-03-29T14:16:35.428Z,7.78
2023-03-29T14:19:11.260Z,6.97
2023-03-29T14:21:37.884Z,3.88
2023-03-29T14:24:04.408Z,7.88
2023-03-29T14:26:33.118Z,9.50
2023-03-29T14:29:01.286Z,6.43
2023-03-29T14:31:32.316Z,7.25
2023-03-29T14:34:00.407Z,10.93
2023-03-29T14:36:28.268Z,3.70
2023-03-29T14:39:05.365Z,6.40
2023-03-29T14:41:33.935Z,9.60
2023-03-29T14:44:00.944Z,5.35
2023-03-29T14:46:27.652Z,6.28
2023-03-29T14:48:54.638Z,7.63
2023-03-29T14:51:23.319Z,7.70
2023-03-29T14:53:50.025Z,8.98
2023-03-29T14:56:18.238Z,11.30
2023-03-29T14:58:48.535Z,12.75
2023-03-29T15:01:20.826Z,7.88
2023-03-29T15:03:56.449Z,6.23
2023-03-29T15:06:24.690Z,6.93
2023-03-29T15:09:02.071Z,5.60
2023-03-29T15:11:33.905Z,4.60
2023-03-29T15:14:09.595Z,4.63
2023-03-29T15:16:41.203Z,4.07
2023-03-29T15:19:14.414Z,8.20
2023-03-29T15:21:40.984Z,8.10
2023-03-29T15:24:36.927Z,9.30
2023-03-29T15:27:13.465Z,7.38
2023-03-29T15:29:42.332Z,9.67
2023-03-29T15:32:10.137Z,7.70
2023-03-29T15:34:38.296Z,7.68
2023-03-29T15:37:04.887Z,8.23
2023-03-29T15:39:32.062Z,7.72
2023-03-29T15:41:58.573Z,9.53
2023-03-29T15:44:30.256Z,8.13
2023-03-29T15:46:58.750Z,16.63
2023-03-29T15:49:26.164Z,6.97
2023-03-29T15:51:56.728Z,7.40
2023-03-29T15:54:24.764Z,8.80
2023-03-29T15:57:02.027Z,8.93
2023-03-29T15:59:32.966Z,9.25
2023-03-29T16:01:59.721Z,9.48
2023-03-29T16:04:27.918Z,9.25
2023-03-29T16:06:54.973Z,8.63
2023-03-29T16:09:22.358Z,11.50
2023-03-29T16:11:49.972Z,9.38
2023-03-29T16:14:25.173Z,13.55
2023-03-29T16:16:52.604Z,9.40
2023-03-29T16:19:19.496Z,7.10
2023-03-29T16:21:46.053Z,11.07
2023-03-29T16:24:19.589Z,13.18
2023-03-29T16:26:46.912Z,12.07
2023-03-29T16:29:13.427Z,12.63
2023-03-29T16:31:40.454Z,7.27
2023-03-29T16:34:07.694Z,10.88
2023-03-29T16:36:35.399Z,9.52
2023-03-29T16:39:01.937Z,8.70
2023-03-29T16:41:28.548Z,9.90
2023-03-29T16:43:55.029Z,5.40
2023-03-29T16:46:21.621Z,9.43
2023-03-29T16:48:48.922Z,8.93
2023-03-29T16:51:15.592Z,9.73
2023-03-29T16:53:43.055Z,12.13
2023-03-29T16:56:10.841Z,12.70
2023-03-29T16:58:41.080Z,10.13
2023-03-29T17:01:09.962Z,10.82
2023-03-29T17:03:37.417Z,10.63
2023-03-29T17:06:04.827Z,9.00
2023-03-29T17:08:32.238Z,7.30
2023-03-29T17:10:59.035Z,7.85
2023-03-29T17:13:26.050Z,9.15
2023-03-29T17:15:54.120Z,8.80
2023-03-29T17:18:21.090Z,9.77
2023-03-29T17:20:48.030Z,11.93
2023-03-29T17:23:14.632Z,10.40
2023-03-29T17:25:42.419Z,9.60
2023-03-29T17:28:09.771Z,11.63
2023-03-29T17:30:37.365Z,9.88
2023-03-29T17:33:04.580Z,10.77
2023-03-29T17:35:31.198Z,13.48
2023-03-29T17:37:58.751Z,12.02
2023-03-29T17:40:25.783Z,15.35
2023-03-29T17:42:52.613Z,9.73
2023-03-29T17:45:19.839Z,10.23
2023-03-29T17:47:46.391Z,11.85
2023-03-29T17:50:13.290Z,11.57
2023-03-29T17:52:39.940Z,9.38
2023-03-29T17:55:13.304Z,11.52
2023-03-29T17:57:40.967Z,11.93
2023-03-29T18:00:10.767Z,11.50
2023-03-29T18:02:37.355Z,13.18
2023-03-29T18:05:04.765Z,15.48
2023-03-29T18:07:31.610Z,13.77
2023-03-29T18:09:58.106Z,12.23
2023-03-29T18:12:26.032Z,12.90
2023-03-29T18:14:52.641Z,11.35
2023-03-29T18:17:19.210Z,13.07
2023-03-29T18:19:45.998Z,15.45
2023-03-29T18:22:12.492Z,12.70
2023-03-29T18:24:38.972Z,10.57
2023-03-29T18:27:05.542Z,15.32
2023-03-29T18:29:32.124Z,15.40
2023-03-29T18:32:02.676Z,16.13
2023-03-29T18:34:29.982Z,10.40
2023-03-29T18:36:57.127Z,14.30
2023-03-29T18:39:27.285Z,11.73
2023-03-29T18:41:54.352Z,11.93
2023-03-29T18:44:22.644Z,14.15
2023-03-29T18:46:49.121Z,19.03
2023-03-29T18:49:15.650Z,16.45
2023-03-29T18:51:42.691Z,15.63
2023-03-29T18:54:09.443Z,15.73
2023-03-29T18:56:36.596Z,17.08
2023-03-29T18:59:06.148Z,18.80
2023-03-29T19:01:32.976Z,17.67
2023-03-29T19:04:03.024Z,20.70
2023-03-29T19:06:29.843Z,17.08
2023-03-29T19:08:58.271Z,17.45
2023-03-29T19:11:26.993Z,19.50
2023-03-29T19:13:55.269Z,19.42
2023-03-29T19:16:21.832Z,17.50
2023-03-29T19:18:48.423Z,13.90
2023-03-29T19:21:15.027Z,15.45
2023-03-29T19:23:41.769Z,11.83
2023-03-29T19:26:09.533Z,15.77
2023-03-29T19:28:36.611Z,16.05
2023-03-29T19:31:04.129Z,16.63
2023-03-29T19:33:30.921Z,17.13
2023-03-29T19:35:57.522Z,16.20
2023-03-29T19:38:28.084Z,13.15
2023-03-29T19:40:54.689Z,18.83
2023-03-29T19:43:21.528Z,14.57
2023-03-29T19:45:50.113Z,12.98
2023-03-29T19:48:23.920Z,17.07
2023-03-29T19:50:52.277Z,16.23
2023-03-29T19:53:18.798Z,17.08
2023-03-29T19:55:45.624Z,11.82
2023-03-29T19:58:14.801Z,14.80
2023-03-29T20:00:41.733Z,18.87
2023-03-29T20:03:12.456Z,15.18
2023-03-29T20:05:39.142Z,18.60
2023-03-29T20:08:06.529Z,16.25
2023-03-29T20:10:33.674Z,16.45
2023-03-29T20:13:00.366Z,17.73
2023-03-29T20:15:27.011Z,18.00
2023-03-29T20:17:58.541Z,17.10
2023-03-29T20:20:29.251Z,14.88
2023-03-29T20:22:58.568Z,17.45
2023-03-29T20:25:25.849Z,23.07
2023-03-29T20:27:53.086Z,17.70
2023-03-29T20:30:20.256Z,18.05
2023-03-29T20:32:47.338Z,16.63
2023-03-29T20:35:16.801Z,19.23
2023-03-29T20:37:43.496Z,17.73
2023-03-29T20:40:11.315Z,21.90
2023-03-29T20:42:38.584Z,22.48
2023-03-29T20:45:06.570Z,17.55
2023-03-29T20:47:33.131Z,19.05
2023-03-29T20:50:01.744Z,19.47
2023-03-29T20:52:28.350Z,16.55
2023-03-29T20:54:54.818Z,21.55
2023-03-29T20:57:21.441Z,20.73
2023-03-29T20:59:49.180Z,19.23
2023-03-29T21:02:20.684Z,21.47
2023-03-29T21:04:51.933Z,17.13
2023-03-29T21:07:20.025Z,15.75
2023-03-29T21:09:48.280Z,15.77
2023-03-29T21:12:14.862Z,15.52
2023-03-29T21:14:41.577Z,14.57
2023-03-29T21:17:09.526Z,15.45
2023-03-29T21:19:37.918Z,18.40
2023-03-29T21:22:05.018Z,11.95
2023-03-29T21:24:33.053Z,17.75
2023-03-29T21:27:00.578Z,22.50
2023-03-29T21:29:27.402Z,15.23
2023-03-29T21:31:54.162Z,17.33
2023-03-29T21:34:20.763Z,16.73
2023-03-29T21:36:47.421Z,13.52
2023-03-29T21:39:14.095Z,14.73
2023-03-29T21:41:40.634Z,13.35
2023-03-29T21:44:07.132Z,15.82
2023-03-29T21:46:33.733Z,14.40
2023-03-29T21:49:00.271Z,15.85
2023-03-29T21:51:27.031Z,14.93
2023-03-29T21:53:55.857Z,18.77
2023-03-29T21:56:22.525Z,17.10
2023-03-29T21:58:49.146Z,17.15
2023-03-29T22:01:16.169Z,17.20
2023-03-29T22:03:42.798Z,12.70
2023-03-29T22:06:13.015Z,14.25
2023-03-29T22:08:40.420Z,16.33
2023-03-29T22:11:13.823Z,14.18
2023-03-29T22:13:40.898Z,18.23
2023-03-29T22:16:07.859Z,13.27
2023-03-29T22:18:43.016Z,17.40
2023-03-29T22:21:14.164Z,14.93
2023-03-29T22:23:42.753Z,17.30
2023-03-29T22:26:11.239Z,16.50
2023-03-29T22:28:38.390Z,17.27
2023-03-29T22:31:06.907Z,13.50
2023-03-29T22:33:34.405Z,14.70
2023-03-29T22:36:01.777Z,14.38
2023-03-29T22:38:28.907Z,16.95
2023-03-29T22:40:55.852Z,16.83
2023-03-29T22:43:22.339Z,17.75
2023-03-29T22:45:49.147Z,15.43
2023-03-29T22:48:15.897Z,14.15
2023-03-29T22:50:42.972Z,14.18
2023-03-29T22:53:10.272Z,18.17
2023-03-29T22:55:37.159Z,24.00
2023-03-29T22:58:03.822Z,16.30
2023-03-29T23:00:30.953Z,17.67
2023-03-29T23:02:57.560Z,14.52
2023-03-29T23:05:24.105Z,16.03
2023-03-29T23:07:50.587Z,14.48
2023-03-29T23:10:17.259Z,17.70
2023-03-29T23:12:43.822Z,15.63
2023-03-29T23:15:13.410Z,16.67
2023-03-29T23:17:40.174Z,17.87
2023-03-29T23:20:07.193Z,17.38
2023-03-29T23:22:35.763Z,15.48
2023-03-29T23:25:02.340Z,16.60
2023-03-29T23:27:28.836Z,13.15
2023-03-29T23:29:56.240Z,15.23
2023-03-29T23:32:22.819Z,15.18
2023-03-29T23:34:49.270Z,14.82
2023-03-29T23:37:15.737Z,15.20
2023-03-29T23:39:42.262Z,17.27
2023-03-29T23:42:08.765Z,15.50
2023-03-29T23:44:35.206Z,15.00
2023-03-29T23:47:01.803Z,16.25
2023-03-29T23:49:28.382Z,15.38
2023-03-29T23:51:55.984Z,19.27
2023-03-29T23:54:22.850Z,18.17
2023-03-29T23:56:49.310Z,17.42
2023-03-29T23:59:16.346Z,15.52
